createdAt,value
2016-10-20T00:00:13.018Z,952.46
2016-10-20T00:01:13.029Z,952.46
2016-10-20T00:02:13.048Z,952.47
2016-10-20T00:03:13.067Z,952.49
2016-10-20T00:04:13.086Z,952.48
2016-10-20T00:05:13.105Z,952.46
2016-10-20T00:06:13.123Z,952.5
2016-10-20T00:07:13.142Z,952.47
2016-10-20T00:08:13.161Z,952.48
2016-10-20T00:09:13.180Z,952.51
2016-10-20T00:10:13.199Z,952.47
2016-10-20T00:11:13.217Z,952.52
2016-10-20T00:12:13.236Z,952.49
2016-10-20T00:13:13.255Z,952.5
2016-10-20T00:14:13.274Z,952.49
2016-10-20T00:15:13.296Z,952.5
2016-10-20T00:16:13.312Z,952.47
2016-10-20T00:17:13.330Z,952.51
2016-10-20T00:18:13.348Z,952.54
2016-10-20T00:19:13.368Z,952.5
2016-10-20T00:20:13.388Z,952.55
2016-10-20T00:21:13.405Z,952.52
2016-10-20T00:22:13.425Z,952.49
2016-10-20T00:23:13.444Z,952.5
2016-10-20T00:24:13.463Z,952.46
2016-10-20T00:25:13.482Z,952.48
2016-10-20T00:26:13.500Z,952.47
2016-10-20T00:27:13.520Z,952.5
2016-10-20T00:28:13.538Z,952.51
2016-10-20T00:29:13.558Z,952.53
2016-10-20T00:30:13.580Z,952.5
2016-10-20T00:31:13.597Z,952.49
2016-10-20T00:32:13.614Z,952.47
2016-10-20T00:33:13.634Z,952.5
2016-10-20T00:34:13.654Z,952.5
2016-10-20T00:35:13.672Z,952.53
2016-10-20T00:36:13.691Z,952.52
2016-10-20T00:37:13.711Z,952.53
2016-10-20T00:38:13.729Z,952.54
2016-10-20T00:39:13.746Z,952.53
2016-10-20T00:40:13.767Z,952.54
2016-10-20T00:41:13.786Z,952.52
2016-10-20T00:42:13.805Z,952.51
2016-10-20T00:43:13.823Z,952.52
2016-10-20T00:44:13.842Z,952.53
2016-10-20T00:45:13.863Z,952.53
2016-10-20T00:46:13.881Z,952.52
2016-10-20T00:47:13.899Z,952.53
2016-10-20T00:48:13.918Z,952.51
2016-10-20T00:49:13.937Z,952.55
2016-10-20T00:50:13.956Z,952.51
2016-10-20T00:51:13.973Z,952.53
2016-10-20T00:52:13.994Z,952.5
2016-10-20T00:53:14.013Z,952.51
2016-10-20T00:54:14.031Z,952.48
2016-10-20T00:55:14.050Z,952.49
2016-10-20T00:56:14.070Z,952.5
2016-10-20T00:57:14.089Z,952.47
2016-10-20T00:58:14.107Z,952.49
2016-10-20T00:59:14.127Z,952.48
2016-10-20T01:00:14.146Z,952.45
2016-10-20T01:01:14.163Z,952.45
2016-10-20T01:02:14.183Z,952.45
2016-10-20T01:03:14.203Z,952.41
2016-10-20T01:04:14.221Z,952.44
2016-10-20T01:05:14.240Z,952.41
2016-10-20T01:06:14.259Z,952.39
2016-10-20T01:07:14.278Z,952.43
2016-10-20T01:08:14.296Z,952.41
2016-10-20T01:09:14.314Z,952.4
2016-10-20T01:10:14.335Z,952.41
2016-10-20T01:11:14.353Z,952.39
2016-10-20T01:12:14.372Z,952.39
2016-10-20T01:13:14.391Z,952.37
2016-10-20T01:14:14.411Z,952.39
2016-10-20T01:15:14.428Z,952.39
2016-10-20T01:16:14.447Z,952.4
2016-10-20T01:17:14.467Z,952.38
2016-10-20T01:18:14.486Z,952.38
2016-10-20T01:19:14.505Z,952.36
2016-10-20T01:20:14.525Z,952.36
2016-10-20T01:21:14.544Z,952.32
2016-10-20T01:22:14.562Z,952.34
2016-10-20T01:23:14.581Z,952.32
2016-10-20T01:24:14.601Z,952.33
2016-10-20T01:25:14.620Z,952.24
2016-10-20T01:26:14.638Z,952.24
2016-10-20T01:27:14.658Z,952.23
2016-10-20T01:28:14.677Z,952.14
2016-10-20T01:29:14.696Z,952.15
2016-10-20T01:30:14.713Z,952.15
2016-10-20T01:31:14.732Z,952.15
2016-10-20T01:32:14.752Z,952.16
2016-10-20T01:33:14.770Z,952.13
2016-10-20T01:34:14.789Z,952.18
2016-10-20T01:35:14.808Z,952.16
2016-10-20T01:36:14.827Z,952.17
2016-10-20T01:37:14.846Z,952.2
2016-10-20T01:38:14.865Z,952.21
2016-10-20T01:39:14.884Z,952.23
2016-10-20T01:40:14.904Z,952.2
2016-10-20T01:41:14.921Z,952.2
2016-10-20T01:42:14.941Z,952.13
2016-10-20T01:43:14.959Z,952.19
2016-10-20T01:44:14.980Z,952.2
2016-10-20T01:45:14.997Z,952.14
2016-10-20T01:46:15.015Z,952.16
2016-10-20T01:47:15.036Z,952.1
2016-10-20T01:48:15.055Z,952.11
2016-10-20T01:49:15.073Z,952.08
2016-10-20T01:50:15.091Z,952.08
2016-10-20T01:51:15.112Z,952.08
2016-10-20T01:52:15.130Z,952.04
2016-10-20T01:53:15.149Z,952.04
2016-10-20T01:54:15.167Z,952.08
2016-10-20T01:55:15.187Z,952.07
2016-10-20T01:56:15.205Z,952.03
2016-10-20T01:57:15.224Z,952.02
2016-10-20T01:58:15.242Z,952
2016-10-20T01:59:15.263Z,951.99
2016-10-20T02:00:15.281Z,951.97
2016-10-20T02:01:15.299Z,951.95
2016-10-20T02:02:15.318Z,951.95
2016-10-20T02:03:15.336Z,951.94
2016-10-20T02:04:15.356Z,951.93
2016-10-20T02:05:15.375Z,951.88
2016-10-20T02:06:15.395Z,951.89
2016-10-20T02:07:15.413Z,951.84
2016-10-20T02:08:15.432Z,951.87
2016-10-20T02:09:15.452Z,951.86
2016-10-20T02:10:15.471Z,951.86
2016-10-20T02:11:15.489Z,951.87
2016-10-20T02:12:15.512Z,951.84
2016-10-20T02:13:15.527Z,951.84
2016-10-20T02:14:15.546Z,951.81
2016-10-20T02:15:15.586Z,951.83
2016-10-20T02:16:15.584Z,951.85
2016-10-20T02:17:15.602Z,951.84
2016-10-20T02:18:15.621Z,951.9
2016-10-20T02:19:15.641Z,951.84
2016-10-20T02:20:15.660Z,951.82
2016-10-20T02:21:15.679Z,951.85
2016-10-20T02:22:15.697Z,951.82
2016-10-20T02:23:15.717Z,951.83
2016-10-20T02:24:15.735Z,951.8
2016-10-20T02:25:15.754Z,951.84
2016-10-20T02:26:15.773Z,951.87
2016-10-20T02:27:15.792Z,951.81
2016-10-20T02:28:15.812Z,951.84
2016-10-20T02:29:15.830Z,951.88
2016-10-20T02:30:15.868Z,951.85
2016-10-20T02:31:15.868Z,951.83
2016-10-20T02:32:15.888Z,951.84
2016-10-20T02:33:15.905Z,951.82
2016-10-20T02:34:15.925Z,951.71
2016-10-20T02:35:15.944Z,951.76
2016-10-20T02:36:15.962Z,951.77
2016-10-20T02:37:15.980Z,951.71
2016-10-20T02:38:16.000Z,951.69
2016-10-20T02:39:16.020Z,951.67
2016-10-20T02:40:16.037Z,951.71
2016-10-20T02:41:16.056Z,951.69
2016-10-20T02:42:16.076Z,951.69
2016-10-20T02:43:16.095Z,951.67
2016-10-20T02:44:16.112Z,951.66
2016-10-20T02:45:16.149Z,951.69
2016-10-20T02:46:16.153Z,951.72
2016-10-20T02:47:16.169Z,951.72
2016-10-20T02:48:16.189Z,951.69
2016-10-20T02:49:16.209Z,951.73
2016-10-20T02:50:16.228Z,951.71
2016-10-20T02:51:16.246Z,951.7
2016-10-20T02:52:16.266Z,951.62
2016-10-20T02:53:16.306Z,951.63
2016-10-20T02:54:16.304Z,951.62
2016-10-20T02:55:16.326Z,951.68
2016-10-20T02:56:16.343Z,951.66
2016-10-20T02:57:16.362Z,951.64
2016-10-20T02:58:16.379Z,951.66
2016-10-20T02:59:16.399Z,951.63
2016-10-20T03:00:16.431Z,951.6
2016-10-20T03:01:16.437Z,951.58
2016-10-20T03:02:16.457Z,951.63
2016-10-20T03:03:16.476Z,951.6
2016-10-20T03:04:16.494Z,951.65
2016-10-20T03:05:16.513Z,951.61
2016-10-20T03:06:16.533Z,951.62
2016-10-20T03:07:16.551Z,951.6
2016-10-20T03:08:16.589Z,951.61
2016-10-20T03:09:16.589Z,951.58
2016-10-20T03:10:16.608Z,951.6
2016-10-20T03:11:16.627Z,951.56
2016-10-20T03:12:16.646Z,951.62
2016-10-20T03:13:16.665Z,951.63
2016-10-20T03:14:16.683Z,951.63
2016-10-20T03:15:16.712Z,951.62
2016-10-20T03:16:16.721Z,951.59
2016-10-20T03:17:16.740Z,951.58
2016-10-20T03:18:16.760Z,951.6
2016-10-20T03:19:16.779Z,951.63
2016-10-20T03:20:16.797Z,951.6
2016-10-20T03:21:16.815Z,951.61
2016-10-20T03:22:16.835Z,951.61
2016-10-20T03:23:16.871Z,951.57
2016-10-20T03:24:16.872Z,951.57
2016-10-20T03:25:16.892Z,951.6
2016-10-20T03:26:16.909Z,951.56
2016-10-20T03:27:16.929Z,951.59
2016-10-20T03:28:16.947Z,951.6
2016-10-20T03:29:16.967Z,951.56
2016-10-20T03:30:16.997Z,951.55
2016-10-20T03:31:17.004Z,951.53
2016-10-20T03:32:17.023Z,951.5
2016-10-20T03:33:17.044Z,951.5
2016-10-20T03:34:17.062Z,951.52
2016-10-20T03:35:17.079Z,951.49
2016-10-20T03:36:17.099Z,951.44
2016-10-20T03:37:17.118Z,951.48
2016-10-20T03:38:17.152Z,951.49
2016-10-20T03:39:17.155Z,951.51
2016-10-20T03:40:17.175Z,951.47
2016-10-20T03:41:17.193Z,951.5
2016-10-20T03:42:17.213Z,951.46
2016-10-20T03:43:17.232Z,951.47
2016-10-20T03:44:17.250Z,951.51
2016-10-20T03:45:17.275Z,951.45
2016-10-20T03:46:17.287Z,951.47
2016-10-20T03:47:17.307Z,951.45
2016-10-20T03:48:17.326Z,951.46
2016-10-20T03:49:17.343Z,951.47
2016-10-20T03:50:17.362Z,951.45
2016-10-20T03:51:17.382Z,951.48
2016-10-20T03:52:17.401Z,951.46
2016-10-20T03:53:17.435Z,951.51
2016-10-20T03:54:17.438Z,951.47
2016-10-20T03:55:17.458Z,951.46
2016-10-20T03:56:17.477Z,951.49
2016-10-20T03:57:17.495Z,951.49
2016-10-20T03:58:17.515Z,951.49
2016-10-20T03:59:17.534Z,951.5
2016-10-20T04:00:17.558Z,951.49
2016-10-20T04:01:17.571Z,951.49
2016-10-20T04:02:17.590Z,951.47
2016-10-20T04:03:17.610Z,951.49
2016-10-20T04:04:17.628Z,951.48
2016-10-20T04:05:17.647Z,951.52
2016-10-20T04:06:17.666Z,951.52
2016-10-20T04:07:17.685Z,951.52
2016-10-20T04:08:17.755Z,951.52
2016-10-20T04:09:17.723Z,951.48
2016-10-20T04:10:17.742Z,951.51
2016-10-20T04:11:17.760Z,951.53
2016-10-20T04:12:17.779Z,951.5
2016-10-20T04:13:17.798Z,951.49
2016-10-20T04:14:17.818Z,951.48
2016-10-20T04:15:17.840Z,951.49
2016-10-20T04:16:17.855Z,951.54
2016-10-20T04:17:17.874Z,951.5
2016-10-20T04:18:17.893Z,951.51
2016-10-20T04:19:17.911Z,951.5
2016-10-20T04:20:17.931Z,951.51
2016-10-20T04:21:17.951Z,951.5
2016-10-20T04:22:17.968Z,951.55
2016-10-20T04:23:17.996Z,951.54
2016-10-20T04:24:18.006Z,951.54
2016-10-20T04:25:18.027Z,951.53
2016-10-20T04:26:18.047Z,951.53
2016-10-20T04:27:18.064Z,951.48
2016-10-20T04:28:18.084Z,951.51
2016-10-20T04:29:18.103Z,951.46
2016-10-20T04:30:18.123Z,951.48
2016-10-20T04:31:18.142Z,951.45
2016-10-20T04:32:18.161Z,951.45
2016-10-20T04:33:18.179Z,951.49
2016-10-20T04:34:18.198Z,951.47
2016-10-20T04:35:18.219Z,951.46
2016-10-20T04:36:18.237Z,951.47
2016-10-20T04:37:18.255Z,951.44
2016-10-20T04:38:18.277Z,951.44
2016-10-20T04:39:18.294Z,951.44
2016-10-20T04:40:18.312Z,951.48
2016-10-20T04:41:18.332Z,951.44
2016-10-20T04:42:18.351Z,951.47
2016-10-20T04:43:18.371Z,951.45
2016-10-20T04:44:18.389Z,951.46
2016-10-20T04:45:18.415Z,951.44
2016-10-20T04:46:18.427Z,951.43
2016-10-20T04:47:18.447Z,951.46
2016-10-20T04:48:18.465Z,951.46
2016-10-20T04:49:18.484Z,951.44
2016-10-20T04:50:18.502Z,951.5
2016-10-20T04:51:18.522Z,951.47
2016-10-20T04:52:18.540Z,951.5
2016-10-20T04:53:18.561Z,951.51
2016-10-20T04:54:18.580Z,951.49
2016-10-20T04:55:18.598Z,951.48
2016-10-20T04:56:18.617Z,951.46
2016-10-20T04:57:18.637Z,951.53
2016-10-20T04:58:18.657Z,951.51
2016-10-20T04:59:18.674Z,951.53
2016-10-20T05:00:18.697Z,951.47
2016-10-20T05:01:18.713Z,951.51
2016-10-20T05:02:18.732Z,951.53
2016-10-20T05:03:18.750Z,951.52
2016-10-20T05:04:18.771Z,951.46
2016-10-20T05:05:18.789Z,951.49
2016-10-20T05:06:18.808Z,951.48
2016-10-20T05:07:18.827Z,951.45
2016-10-20T05:08:18.846Z,951.5
2016-10-20T05:09:18.866Z,951.48
2016-10-20T05:10:18.885Z,951.47
2016-10-20T05:11:18.904Z,951.5
2016-10-20T05:12:18.923Z,951.48
2016-10-20T05:13:18.941Z,951.46
2016-10-20T05:14:18.961Z,951.47
2016-10-20T05:15:18.984Z,951.47
2016-10-20T05:16:19.002Z,951.49
2016-10-20T05:17:19.019Z,951.44
2016-10-20T05:18:19.040Z,951.48
2016-10-20T05:19:19.063Z,951.43
2016-10-20T05:20:19.077Z,951.45
2016-10-20T05:21:19.096Z,951.45
2016-10-20T05:22:19.115Z,951.49
2016-10-20T05:23:19.136Z,951.46
2016-10-20T05:24:19.152Z,951.43
2016-10-20T05:25:19.172Z,951.41
2016-10-20T05:26:19.190Z,951.44
2016-10-20T05:27:19.210Z,951.4
2016-10-20T05:28:19.229Z,951.42
2016-10-20T05:29:19.251Z,951.41
2016-10-20T05:30:19.267Z,951.42
2016-10-20T05:31:19.288Z,951.38
2016-10-20T05:32:19.305Z,951.41
2016-10-20T05:33:19.324Z,951.44
2016-10-20T05:34:19.344Z,951.38
2016-10-20T05:35:19.363Z,951.4
2016-10-20T05:36:19.381Z,951.42
2016-10-20T05:37:19.400Z,951.43
2016-10-20T05:38:19.419Z,951.45
2016-10-20T05:39:19.438Z,951.44
2016-10-20T05:40:19.458Z,951.43
2016-10-20T05:41:19.495Z,951.48
2016-10-20T05:42:19.495Z,951.45
2016-10-20T05:43:19.518Z,951.48
2016-10-20T05:44:19.533Z,951.44
2016-10-20T05:45:19.562Z,951.46
2016-10-20T05:46:19.572Z,951.47
2016-10-20T05:47:19.590Z,951.48
2016-10-20T05:48:19.609Z,951.48
2016-10-20T05:49:19.628Z,951.46
2016-10-20T05:50:19.648Z,951.47
2016-10-20T05:51:19.664Z,951.49
2016-10-20T05:52:19.687Z,951.49
2016-10-20T05:53:19.703Z,951.48
2016-10-20T05:54:19.723Z,951.51
2016-10-20T05:55:19.741Z,951.48
2016-10-20T05:56:19.760Z,951.45
2016-10-20T05:57:19.778Z,951.45
2016-10-20T05:58:19.797Z,951.48
2016-10-20T05:59:19.816Z,951.48
2016-10-20T06:00:19.835Z,951.49
2016-10-20T06:01:19.853Z,951.44
2016-10-20T06:02:19.877Z,951.54
2016-10-20T06:03:19.891Z,951.54
2016-10-20T06:04:19.910Z,951.52
2016-10-20T06:05:19.929Z,951.52
2016-10-20T06:06:19.949Z,951.54
2016-10-20T06:07:19.967Z,951.57
2016-10-20T06:08:19.986Z,951.55
2016-10-20T06:09:20.004Z,951.55
2016-10-20T06:10:20.023Z,951.55
2016-10-20T06:11:20.042Z,951.53
2016-10-20T06:12:20.068Z,951.57
2016-10-20T06:13:20.081Z,951.55
2016-10-20T06:14:20.098Z,951.55
2016-10-20T06:15:20.116Z,951.52
2016-10-20T06:16:20.136Z,951.56
2016-10-20T06:17:20.155Z,951.57
2016-10-20T06:18:20.173Z,951.59
2016-10-20T06:19:20.192Z,951.59
2016-10-20T06:20:20.211Z,951.62
2016-10-20T06:21:20.231Z,951.63
2016-10-20T06:22:20.248Z,951.61
2016-10-20T06:23:20.265Z,951.66
2016-10-20T06:24:20.288Z,951.65
2016-10-20T06:25:20.304Z,951.61
2016-10-20T06:26:20.321Z,951.65
2016-10-20T06:27:20.341Z,951.63
2016-10-20T06:28:20.360Z,951.6
2016-10-20T06:29:20.379Z,951.63
2016-10-20T06:30:20.397Z,951.63
2016-10-20T06:31:20.417Z,951.62
2016-10-20T06:32:20.435Z,951.65
2016-10-20T06:33:20.454Z,951.66
2016-10-20T06:34:20.473Z,951.65
2016-10-20T06:35:20.495Z,951.65
2016-10-20T06:36:20.509Z,951.69
2016-10-20T06:37:20.526Z,951.68
2016-10-20T06:38:20.546Z,951.7
2016-10-20T06:39:20.566Z,951.68
2016-10-20T06:40:20.585Z,951.7
2016-10-20T06:41:20.602Z,951.7
2016-10-20T06:42:20.621Z,951.72
2016-10-20T06:43:20.641Z,951.71
2016-10-20T06:44:20.660Z,951.75
2016-10-20T06:45:20.678Z,951.71
2016-10-20T06:46:20.698Z,951.73
2016-10-20T06:47:20.716Z,951.71
2016-10-20T06:48:20.738Z,951.72
2016-10-20T06:49:20.754Z,951.75
2016-10-20T06:50:20.773Z,951.72
2016-10-20T06:51:20.792Z,951.76
2016-10-20T06:52:20.809Z,951.76
2016-10-20T06:53:20.827Z,951.75
2016-10-20T06:54:20.847Z,951.77
2016-10-20T06:55:20.867Z,951.82
2016-10-20T06:56:20.884Z,951.83
2016-10-20T06:57:20.902Z,951.82
2016-10-20T06:58:20.922Z,951.78
2016-10-20T06:59:20.940Z,951.8
2016-10-20T07:00:20.961Z,951.81
2016-10-20T07:01:20.977Z,951.78
2016-10-20T07:02:20.996Z,951.8
2016-10-20T07:03:21.014Z,951.79
2016-10-20T07:04:21.033Z,951.82
2016-10-20T07:05:21.053Z,951.81
2016-10-20T07:06:21.072Z,951.79
2016-10-20T07:07:21.092Z,951.83
2016-10-20T07:08:21.108Z,951.87
2016-10-20T07:09:21.126Z,951.85
2016-10-20T07:10:21.146Z,951.89
2016-10-20T07:11:21.164Z,951.88
2016-10-20T07:12:21.185Z,951.91
2016-10-20T07:13:21.206Z,951.87
2016-10-20T07:14:21.222Z,951.86
2016-10-20T07:15:21.241Z,951.86
2016-10-20T07:16:21.258Z,951.88
2016-10-20T07:17:21.278Z,951.89
2016-10-20T07:18:21.296Z,951.86
2016-10-20T07:19:21.314Z,951.84
2016-10-20T07:20:21.334Z,951.89
2016-10-20T07:21:21.352Z,951.85
2016-10-20T07:22:21.371Z,951.9
2016-10-20T07:23:21.390Z,951.84
2016-10-20T07:24:21.411Z,951.86
2016-10-20T07:25:21.428Z,951.83
2016-10-20T07:26:21.447Z,951.86
2016-10-20T07:27:21.467Z,951.84
2016-10-20T07:28:21.487Z,951.87
2016-10-20T07:29:21.506Z,951.87
2016-10-20T07:30:21.525Z,951.83
2016-10-20T07:31:21.542Z,951.83
2016-10-20T07:32:21.559Z,951.87
2016-10-20T07:33:21.579Z,951.86
2016-10-20T07:34:21.598Z,951.82
2016-10-20T07:35:21.617Z,951.85
2016-10-20T07:36:21.635Z,951.84
2016-10-20T07:37:21.654Z,951.84
2016-10-20T07:38:21.673Z,951.83
2016-10-20T07:39:21.693Z,951.78
2016-10-20T07:40:21.711Z,951.84
2016-10-20T07:41:21.730Z,951.83
2016-10-20T07:42:21.748Z,951.82
2016-10-20T07:43:21.768Z,951.82
2016-10-20T07:44:21.786Z,951.85
2016-10-20T07:45:21.806Z,951.89
2016-10-20T07:46:21.826Z,951.79
2016-10-20T07:47:21.844Z,951.82
2016-10-20T07:48:21.864Z,951.83
2016-10-20T07:49:21.883Z,951.81
2016-10-20T07:50:21.900Z,951.78
2016-10-20T07:51:21.920Z,951.77
2016-10-20T07:52:21.939Z,951.75
2016-10-20T07:53:21.958Z,951.75
2016-10-20T07:54:21.977Z,951.76
2016-10-20T07:55:21.996Z,951.75
2016-10-20T07:56:22.016Z,951.75
2016-10-20T07:57:22.034Z,951.79
2016-10-20T07:58:22.054Z,951.79
2016-10-20T07:59:22.071Z,951.76
2016-10-20T08:00:22.092Z,951.76
2016-10-20T08:01:22.109Z,951.74
2016-10-20T08:02:22.129Z,951.78
2016-10-20T08:03:22.148Z,951.69
2016-10-20T08:04:22.168Z,951.69
2016-10-20T08:05:22.186Z,951.74
2016-10-20T08:06:22.205Z,951.68
2016-10-20T08:07:22.224Z,951.73
2016-10-20T08:08:22.263Z,951.71
2016-10-20T08:09:22.262Z,951.68
2016-10-20T08:10:22.281Z,951.7
2016-10-20T08:11:22.300Z,951.71
2016-10-20T08:12:22.319Z,951.71
2016-10-20T08:13:22.338Z,951.69
2016-10-20T08:14:22.357Z,951.72
2016-10-20T08:15:22.377Z,951.64
2016-10-20T08:16:22.398Z,951.7
2016-10-20T08:17:22.415Z,951.69
2016-10-20T08:18:22.434Z,951.7
2016-10-20T08:19:22.454Z,951.69
2016-10-20T08:20:22.474Z,951.68
2016-10-20T08:21:22.492Z,951.6
2016-10-20T08:22:22.512Z,951.64
2016-10-20T08:23:22.544Z,951.64
2016-10-20T08:24:22.549Z,951.67
2016-10-20T08:25:22.568Z,951.63
2016-10-20T08:26:22.589Z,951.68
2016-10-20T08:27:22.606Z,951.64
2016-10-20T08:28:22.626Z,951.69
2016-10-20T08:29:22.646Z,951.64
2016-10-20T08:30:22.665Z,951.63
2016-10-20T08:31:22.702Z,951.66
2016-10-20T08:32:22.703Z,951.66
2016-10-20T08:33:22.722Z,951.67
2016-10-20T08:34:22.742Z,951.69
2016-10-20T08:35:22.761Z,951.67
2016-10-20T08:36:22.780Z,951.65
2016-10-20T08:37:22.800Z,951.65
2016-10-20T08:38:22.826Z,951.62
2016-10-20T08:39:22.836Z,951.63
2016-10-20T08:40:22.858Z,951.62
2016-10-20T08:41:22.875Z,951.58
2016-10-20T08:42:22.897Z,951.58
2016-10-20T08:43:22.919Z,951.54
2016-10-20T08:44:22.935Z,951.55
2016-10-20T08:45:22.953Z,951.61
2016-10-20T08:46:22.981Z,951.57
2016-10-20T08:47:22.993Z,951.56
2016-10-20T08:48:23.012Z,951.54
2016-10-20T08:49:23.031Z,951.54
2016-10-20T08:50:23.052Z,951.52
2016-10-20T08:51:23.070Z,951.53
2016-10-20T08:52:23.089Z,951.53
2016-10-20T08:53:23.109Z,951.55
2016-10-20T08:54:23.129Z,951.5
2016-10-20T08:55:23.147Z,951.6
2016-10-20T08:56:23.167Z,951.57
2016-10-20T08:57:23.187Z,951.55
2016-10-20T08:58:23.208Z,951.54
2016-10-20T08:59:23.226Z,951.52
2016-10-20T09:00:23.245Z,951.52
2016-10-20T09:01:23.265Z,951.54
2016-10-20T09:02:23.285Z,951.56
2016-10-20T09:03:23.305Z,951.54
2016-10-20T09:04:23.324Z,951.47
2016-10-20T09:05:23.344Z,951.49
2016-10-20T09:06:23.363Z,951.46
2016-10-20T09:07:23.382Z,951.49
2016-10-20T09:08:23.405Z,951.41
2016-10-20T09:09:23.422Z,951.49
2016-10-20T09:10:23.443Z,951.51
2016-10-20T09:11:23.463Z,951.5
2016-10-20T09:12:23.483Z,951.52
2016-10-20T09:13:23.503Z,951.47
2016-10-20T09:14:23.522Z,951.48
2016-10-20T09:15:23.544Z,951.5
2016-10-20T09:16:23.569Z,951.46
2016-10-20T09:17:23.587Z,951.51
2016-10-20T09:18:23.606Z,951.49
2016-10-20T09:19:23.623Z,951.52
2016-10-20T09:20:23.644Z,951.58
2016-10-20T09:21:23.664Z,951.56
2016-10-20T09:22:23.683Z,951.5
2016-10-20T09:23:23.706Z,951.51
2016-10-20T09:24:23.727Z,951.49
2016-10-20T09:25:23.747Z,951.42
2016-10-20T09:26:23.768Z,951.41
2016-10-20T09:27:23.789Z,951.49
2016-10-20T09:28:23.811Z,951.48
2016-10-20T09:29:23.831Z,951.41
2016-10-20T09:30:23.852Z,951.48
2016-10-20T09:31:23.885Z,951.43
2016-10-20T09:32:23.895Z,951.44
2016-10-20T09:33:23.915Z,951.41
2016-10-20T09:34:23.938Z,951.44
2016-10-20T09:35:23.960Z,951.41
2016-10-20T09:36:23.980Z,951.36
2016-10-20T09:37:23.999Z,951.39
2016-10-20T09:38:24.021Z,951.42
2016-10-20T09:39:24.044Z,951.36
2016-10-20T09:40:24.065Z,951.33
2016-10-20T09:41:24.087Z,951.31
2016-10-20T09:42:24.108Z,951.37
2016-10-20T09:43:24.132Z,951.39
2016-10-20T09:44:24.152Z,951.34
2016-10-20T09:45:24.175Z,951.38
2016-10-20T09:46:24.197Z,951.3
2016-10-20T09:47:24.217Z,951.29
2016-10-20T09:48:24.239Z,951.31
2016-10-20T09:49:24.262Z,951.29
2016-10-20T09:50:24.284Z,951.34
2016-10-20T09:51:24.305Z,951.31
2016-10-20T09:52:24.327Z,951.32
2016-10-20T09:53:24.347Z,951.31
2016-10-20T09:54:24.382Z,951.29
2016-10-20T09:55:24.390Z,951.22
2016-10-20T09:56:24.413Z,951.26
2016-10-20T09:57:24.434Z,951.22
2016-10-20T09:58:24.455Z,951.27
2016-10-20T09:59:24.477Z,951.26
2016-10-20T10:00:24.499Z,951.24
2016-10-20T10:01:24.520Z,951.3
2016-10-20T10:02:24.542Z,951.22
2016-10-20T10:03:24.564Z,951.2
2016-10-20T10:04:24.585Z,951.28
2016-10-20T10:05:24.607Z,951.25
2016-10-20T10:06:24.627Z,951.21
2016-10-20T10:07:24.648Z,951.25
2016-10-20T10:08:24.670Z,951.18
2016-10-20T10:09:24.690Z,951.22
2016-10-20T10:10:24.713Z,951.27
2016-10-20T10:11:24.734Z,951.18
2016-10-20T10:12:24.754Z,951.22
2016-10-20T10:13:24.775Z,951.26
2016-10-20T10:14:24.796Z,951.19
2016-10-20T10:15:24.818Z,951.15
2016-10-20T10:16:24.839Z,951.18
2016-10-20T10:17:24.879Z,951.15
2016-10-20T10:18:24.881Z,951.16
2016-10-20T10:19:24.902Z,951.17
2016-10-20T10:20:24.922Z,951.22
2016-10-20T10:21:24.943Z,951.17
2016-10-20T10:22:24.964Z,951.14
2016-10-20T10:23:24.986Z,951.12
2016-10-20T10:24:25.006Z,951.13
2016-10-20T10:25:25.035Z,951.14
2016-10-20T10:26:25.047Z,951.17
2016-10-20T10:27:25.070Z,951.08
2016-10-20T10:28:25.090Z,951.08
2016-10-20T10:29:25.111Z,951.08
2016-10-20T10:30:25.133Z,951.13
2016-10-20T10:31:25.154Z,951.11
2016-10-20T10:32:25.180Z,951.1
2016-10-20T10:33:25.195Z,951.06
2016-10-20T10:34:25.217Z,951.08
2016-10-20T10:35:25.235Z,951.07
2016-10-20T10:36:25.258Z,951.05
2016-10-20T10:37:25.278Z,951.05
2016-10-20T10:38:25.299Z,951
2016-10-20T10:39:25.319Z,951.04
2016-10-20T10:40:25.341Z,951.02
2016-10-20T10:41:25.361Z,951.03
2016-10-20T10:42:25.382Z,951.04
2016-10-20T10:43:25.402Z,950.96
2016-10-20T10:44:25.423Z,950.98
2016-10-20T10:45:25.444Z,950.94
2016-10-20T10:46:25.464Z,950.88
2016-10-20T10:47:25.484Z,950.96
2016-10-20T10:48:25.507Z,951.05
2016-10-20T10:49:25.528Z,950.91
2016-10-20T10:50:25.550Z,950.89
2016-10-20T10:51:25.570Z,950.92
2016-10-20T10:52:25.591Z,950.93
2016-10-20T10:53:25.612Z,950.83
2016-10-20T10:54:25.633Z,950.94
2016-10-20T10:55:25.655Z,950.91
2016-10-20T10:56:25.675Z,950.9
2016-10-20T10:57:25.695Z,950.83
2016-10-20T10:58:25.716Z,950.77
2016-10-20T10:59:25.737Z,950.85
2016-10-20T11:00:25.758Z,950.82
2016-10-20T11:01:25.779Z,950.81
2016-10-20T11:02:25.800Z,950.83
2016-10-20T11:03:25.828Z,950.87
2016-10-20T11:04:25.841Z,950.87
2016-10-20T11:05:25.863Z,950.83
2016-10-20T11:06:25.885Z,950.85
2016-10-20T11:07:25.905Z,950.78
2016-10-20T11:08:25.926Z,950.76
2016-10-20T11:09:25.946Z,950.75
2016-10-20T11:10:25.968Z,950.78
2016-10-20T11:11:25.988Z,950.74
2016-10-20T11:12:26.010Z,950.76
2016-10-20T11:13:26.030Z,950.75
2016-10-20T11:14:26.051Z,950.76
2016-10-20T11:15:26.072Z,950.81
2016-10-20T11:16:26.093Z,950.75
2016-10-20T11:17:26.116Z,950.77
2016-10-20T11:18:26.155Z,950.74
2016-10-20T11:19:26.157Z,950.78
2016-10-20T11:20:26.178Z,950.77
2016-10-20T11:21:26.198Z,950.66
2016-10-20T11:22:26.219Z,950.7
2016-10-20T11:23:26.240Z,950.67
2016-10-20T11:24:26.262Z,950.71
2016-10-20T11:25:26.282Z,950.7
2016-10-20T11:26:26.311Z,950.63
2016-10-20T11:27:26.324Z,950.68
2016-10-20T11:28:26.346Z,950.68
2016-10-20T11:29:26.367Z,950.69
2016-10-20T11:30:26.387Z,950.67
2016-10-20T11:31:26.409Z,950.69
2016-10-20T11:32:26.430Z,950.67
2016-10-20T11:33:26.454Z,950.64
2016-10-20T11:34:26.472Z,950.6
2016-10-20T11:35:26.493Z,950.64
2016-10-20T11:36:26.514Z,950.61
2016-10-20T11:37:26.535Z,950.58
2016-10-20T11:38:26.556Z,950.58
2016-10-20T11:39:26.577Z,950.6
2016-10-20T11:40:26.600Z,950.55
2016-10-20T11:41:26.619Z,950.54
2016-10-20T11:42:26.642Z,950.55
2016-10-20T11:43:26.662Z,950.6
2016-10-20T11:44:26.684Z,950.58
2016-10-20T11:45:26.704Z,950.5
2016-10-20T11:46:26.726Z,950.49
2016-10-20T11:47:26.774Z,950.47
2016-10-20T11:48:26.770Z,950.45
2016-10-20T11:49:26.809Z,950.45
2016-10-20T11:50:26.812Z,950.4
2016-10-20T11:51:26.833Z,950.44
2016-10-20T11:52:26.854Z,950.51
2016-10-20T11:53:26.877Z,950.47
2016-10-20T11:54:26.898Z,950.31
2016-10-20T11:55:26.919Z,950.4
2016-10-20T11:56:26.942Z,950.37
2016-10-20T11:57:26.966Z,950.38
2016-10-20T11:58:26.984Z,950.4
2016-10-20T11:59:27.014Z,950.36
2016-10-20T12:00:27.029Z,950.32
2016-10-20T12:01:27.049Z,950.34
2016-10-20T12:02:27.072Z,950.36
2016-10-20T12:03:27.095Z,950.36
2016-10-20T12:04:27.115Z,950.31
2016-10-20T12:05:27.139Z,950.4
2016-10-20T12:06:27.158Z,950.31
2016-10-20T12:07:27.179Z,950.21
2016-10-20T12:08:27.200Z,950.26
2016-10-20T12:09:27.222Z,950.25
2016-10-20T12:10:27.246Z,950.24
2016-10-20T12:11:27.265Z,950.22
2016-10-20T12:12:27.305Z,950.24
2016-10-20T12:13:27.310Z,950.18
2016-10-20T12:14:27.328Z,950.24
2016-10-20T12:15:27.352Z,950.28
2016-10-20T12:16:27.373Z,950.21
2016-10-20T12:17:27.394Z,950.21
2016-10-20T12:18:27.414Z,950.23
2016-10-20T12:19:27.448Z,950.26
2016-10-20T12:20:27.461Z,950.22
2016-10-20T12:21:27.480Z,950.21
2016-10-20T12:22:27.502Z,950.25
2016-10-20T12:23:27.527Z,950.16
2016-10-20T12:24:27.547Z,950.11
2016-10-20T12:25:27.567Z,950.16
2016-10-20T12:26:27.589Z,950.16
2016-10-20T12:27:27.611Z,950.1
2016-10-20T12:28:27.631Z,950.11
2016-10-20T12:29:27.654Z,950.14
2016-10-20T12:30:27.675Z,950.17
2016-10-20T12:31:27.698Z,950.13